This is the latest recevied weather packets stored in our database for station/object VK5TRM-13. If no packets are shown the sender has not sent any weather packets the latest 10 day(s).
| Time | Temp. | Humidity | Pressure | Rain* | Wind** | Luminosity | Snow |
|---|---|---|---|---|---|---|---|
| 1787438102 | 10° C | 96% | 1026.6 hPa | 0 mm | - | - | - |
| 1787437202 | 8.33° C | 96% | 1026.6 hPa | 0 mm | - | - | - |
| 1787436302 | 8.33° C | 96% | 1026.6 hPa | 0 mm | - | - | - |
| 1787435403 | 7.78° C | 96% | 1026.4 hPa | 0 mm | - | - | - |
| 1787434503 | 7.78° C | 96% | 1026.4 hPa | 0 mm | - | - | - |
| 1787433602 | 7.22° C | 96% | 1026.3 hPa | 0 mm | - | - | - |
| 1787432702 | 7.22° C | 96% | 1026.3 hPa | 0 mm | - | - | - |
| 1787431802 | 6.11° C | 95% | 1025.6 hPa | 0 mm | - | - | - |
| 1787430902 | 6.11° C | 95% | 1025.6 hPa | 0 mm | - | - | - |
| 1787430002 | 6.11° C | 95% | 1025.6 hPa | 0 mm | - | - | - |
| 1787429102 | 5.56° C | 93% | 1025.7 hPa | 0 mm | - | - | - |
| 1787428202 | 5.56° C | 93% | 1025.7 hPa | 0 mm | - | - | - |
| 1787427303 | 5.56° C | 93% | 1025.7 hPa | 0 mm | - | - | - |
| 1787426402 | 6.11° C | 93% | 1025.8 hPa | 0 mm | - | - | - |
| 1787425502 | 6.11° C | 93% | 1025.8 hPa | 0 mm | - | - | - |
| 1787424602 | 7.22° C | 92% | 1026 hPa | 0 mm | - | - | - |
| 1787423703 | 7.22° C | 92% | 1026 hPa | 0 mm | - | - | - |
| 1787422802 | 8.33° C | 93% | 1026.1 hPa | 0 mm | - | - | - |
| 1787421903 | 8.33° C | 93% | 1026.1 hPa | 0 mm | - | - | - |
| 1787421002 | 9.44° C | 91% | 1026 hPa | 0 mm | - | - | - |
| 1787420102 | 9.44° C | 91% | 1026 hPa | 0 mm | - | - | - |
| 1787419203 | 11.11° C | 90% | 1026.4 hPa | 0 mm | - | - | - |
| 1787418303 | 11.11° C | 90% | 1026.4 hPa | 0 mm | - | - | - |
| 1787417402 | 11.67° C | 90% | 1026.6 hPa | 0 mm | - | - | - |
| 1787416502 | 11.67° C | 90% | 1026.6 hPa | 0 mm | - | - | - |
* Rain latest hour (hover to see other rain measurements)
** Current wind speed in m/s (hover to see current wind gust speed)